Wind EuroAirport

Messzeit Windrichtung Windgeschwindigkeit [Knoten] Rückenwind Nordpiste [Knoten] METAR
2020-04-05 14:00 O 90°
(50°–160°)
6 0–2 LFSB 051200Z AUTO 09006KT 050V160 CAVOK 19/01 Q1021 NOSIG
2020-04-05 13:30 O 110°
(30°–150°)
7 0–4 LFSB 051130Z AUTO 11007KT 030V150 CAVOK 18/M00 Q1021 NOSIG
2020-04-05 13:00 - 3 - LFSB 051100Z AUTO VRB03KT CAVOK 18/01 Q1021 NOSIG
2020-04-05 12:30 - 3 - LFSB 051030Z AUTO VRB03KT CAVOK 17/01 Q1022 NOSIG
2020-04-05 12:00 O 110°
(40°–160°)
5 0–3 LFSB 051000Z AUTO 11005KT 040V160 CAVOK 16/03 Q1022 NOSIG
2020-04-05 11:30 - 3 - LFSB 050930Z AUTO VRB03KT CAVOK 15/02 Q1022 NOSIG
2020-04-05 11:00 - 2 - LFSB 050900Z AUTO VRB02KT CAVOK 13/03 Q1023 NOSIG
2020-04-05 10:30 - 2 - LFSB 050830Z AUTO VRB02KT CAVOK 11/02 Q1023 NOSIG
2020-04-05 10:00 - 2 - LFSB 050800Z AUTO VRB02KT CAVOK 10/02 Q1023 NOSIG
2020-04-05 09:30 - 2 - LFSB 050730Z AUTO VRB02KT 9999 FEW013 08/02 Q1023 NOSIG
2020-04-05 09:00 - 1 - LFSB 050700Z AUTO VRB01KT CAVOK 07/02 Q1023 NOSIG
2020-04-05 08:30 - 0 - LFSB 050630Z AUTO 00000KT CAVOK 04/01 Q1023 NOSIG
2020-04-05 08:00 - 0 - LFSB 050600Z AUTO 00000KT CAVOK 03/00 Q1023 NOSIG
2020-04-05 07:30 S 190° 2 - LFSB 050530Z AUTO 19002KT CAVOK M00/M02 Q1023 NOSIG
2020-04-05 07:00 SW 230° 2 - LFSB 050500Z AUTO 23002KT CAVOK M01/M03 Q1022 NOSIG
2020-04-05 06:30 - 0 - LFSB 050430Z AUTO 00000KT CAVOK 00/M02 Q1022 NOSIG
2020-04-05 06:00 S 190° 1 - LFSB 050400Z AUTO 19001KT CAVOK 00/M02 Q1022 NOSIG
2020-04-05 05:30 S 190° 2 - LFSB 050330Z AUTO 19002KT CAVOK 01/M01 Q1022 NOSIG
2020-04-05 05:00 - 0 - LFSB 050300Z AUTO 00000KT CAVOK 01/M01 Q1022 NOSIG
2020-04-05 04:30 SO 140° 2 - LFSB 050230Z AUTO 14002KT CAVOK 01/M02 Q1022 NOSIG
2020-04-05 04:00 - 0 - LFSB 050200Z AUTO 00000KT CAVOK 02/M01 Q1022 NOSIG
2020-04-05 03:30 SW 210° 2 - LFSB 050130Z AUTO 21002KT CAVOK 02/M01 Q1022 NOSIG
2020-04-05 03:00 SW 220° 3 - LFSB 050100Z AUTO 22003KT CAVOK 02/M01 Q1022 NOSIG
2020-04-05 02:00 - 1 - LFSB 050000Z AUTO VRB01KT CAVOK 02/M01 Q1022 NOSIG
2020-04-05 01:30 SW 230° 2 - LFSB 042330Z AUTO 23002KT CAVOK 02/M01 Q1022 NOSIG
2020-04-05 01:00 SW 230° 1 - LFSB 042300Z AUTO 23001KT CAVOK 03/M00 Q1022 NOSIG
2020-04-05 00:30 W 270° 2 1 LFSB 042230Z AUTO 27002KT CAVOK 04/01 Q1022 NOSIG
2020-04-05 00:00 - 3 - LFSB 042200Z AUTO VRB03KT CAVOK 04/00 Q1022 NOSIG
2020-04-04 23:30 W 250° 2 - LFSB 042130Z AUTO 25002KT CAVOK 05/00 Q1022 NOSIG
2020-04-04 23:00 NW 320° 1 1 LFSB 042100Z AUTO 32001KT CAVOK 07/01 Q1022 NOSIG
2020-04-04 22:30 NW 320° 3 3 LFSB 042030Z AUTO 32003KT CAVOK 07/01 Q1022 NOSIG
2020-04-04 22:00 NW 330° 4 4 LFSB 042000Z AUTO 33004KT CAVOK 09/02 Q1021 NOSIG
2020-04-04 21:30 var 360° 5 5 LFSB 041930Z AUTO 36005KT CAVOK 10/02 Q1021 NOSIG
2020-04-04 21:00 NO 30°
(350°–60°)
5 1–5 LFSB 041900Z AUTO 03005KT 350V060 CAVOK 13/02 Q1021 NOSIG
2020-04-04 20:30 N 20° 6 5 LFSB 041830Z AUTO 02006KT CAVOK 13/02 Q1021 NOSIG
2020-04-04 20:00 N 20° 5 4 LFSB 041800Z AUTO 02005KT CAVOK 14/02 Q1020 NOSIG
2020-04-04 19:30 N 20° 7 5 LFSB 041730Z AUTO 02007KT CAVOK 15/02 Q1020 NOSIG
2020-04-04 19:00 N 20°
(350°–50°)
8 3–8 LFSB 041700Z AUTO 02008KT 350V050 CAVOK 16/02 Q1020 NOSIG
2020-04-04 18:30 N 20°
(340°–60°)
6 1–6 LFSB 041630Z AUTO 02006KT 340V060 CAVOK 17/03 Q1020 NOSIG
2020-04-04 18:00 NO 30°
(360°–60°)
7 1–7 LFSB 041600Z AUTO 03007KT 360V060 CAVOK 17/01 Q1020 NOSIG
2020-04-04 17:30 NO 60°
(10°–100°)
6 0–5 LFSB 041530Z AUTO 06006KT 010V100 CAVOK 17/02 Q1020 NOSIG
2020-04-04 17:00 NO 50°
(340°–120°)
6 0–6 LFSB 041500Z AUTO 05006KT 340V120 CAVOK 17/01 Q1020 NOSIG
2020-04-04 16:30 NW 320°
(270°–10°)
4 1–4 LFSB 041430Z AUTO 32004KT 270V010 CAVOK 17/02 Q1020 NOSIG
2020-04-04 16:00 N 340°
(260°–30°)
5 1–5 LFSB 041400Z AUTO 34005KT 260V030 CAVOK 16/02 Q1021 NOSIG
2020-04-04 15:30 NO 30°
(330°–70°)
5 0–5 LFSB 041330Z AUTO 03005KT 330V070 CAVOK 16/01 Q1021 NOSIG
2020-04-04 15:00 - 5 - LFSB 041300Z AUTO VRB05KT CAVOK 16/02 Q1021 NOSIG